createdAt,value
2022-10-16T00:02:06.837Z,100.00
2022-10-16T00:05:11.964Z,100.00
2022-10-16T00:08:16.888Z,100.00
2022-10-16T00:11:25.211Z,100.00
2022-10-16T00:14:30.102Z,100.00
2022-10-16T00:17:34.934Z,100.00
2022-10-16T00:20:40.442Z,100.00
2022-10-16T00:23:45.724Z,100.00
2022-10-16T00:26:53.709Z,100.00
2022-10-16T00:33:04.011Z,100.00
2022-10-16T00:36:10.024Z,100.00
2022-10-16T00:39:15.427Z,100.00
2022-10-16T00:42:22.241Z,100.00
2022-10-16T00:45:27.080Z,100.00
2022-10-16T00:48:32.404Z,100.00
2022-10-16T00:51:38.854Z,100.00
2022-10-16T00:54:46.083Z,100.00
2022-10-16T00:57:54.811Z,100.00
2022-10-16T01:00:59.949Z,100.00
2022-10-16T01:04:06.589Z,100.00
2022-10-16T01:07:17.246Z,100.00
2022-10-16T01:10:30.178Z,100.00
2022-10-16T01:13:43.777Z,100.00
2022-10-16T01:16:55.860Z,100.00
2022-10-16T01:20:10.790Z,100.00
2022-10-16T01:23:30.317Z,100.00
2022-10-16T01:26:45.215Z,100.00
2022-10-16T01:29:56.860Z,100.00
2022-10-16T01:33:08.417Z,100.00
2022-10-16T01:36:19.647Z,100.00
2022-10-16T01:39:32.534Z,100.00
2022-10-16T01:42:41.403Z,100.00
2022-10-16T01:45:49.053Z,100.00
2022-10-16T01:48:55.207Z,100.00
2022-10-16T01:52:03.630Z,100.00
2022-10-16T01:55:10.932Z,100.00
2022-10-16T01:58:17.038Z,100.00
2022-10-16T02:01:26.417Z,100.00
2022-10-16T02:04:35.826Z,100.00
2022-10-16T02:07:42.743Z,100.00
2022-10-16T02:10:47.439Z,100.00
2022-10-16T02:13:56.257Z,100.00
2022-10-16T02:17:04.468Z,100.00
2022-10-16T02:20:09.273Z,100.00
2022-10-16T02:23:20.003Z,100.00
2022-10-16T02:26:31.888Z,100.00
2022-10-16T02:29:42.257Z,100.00
2022-10-16T02:32:51.302Z,100.00
2022-10-16T02:35:57.278Z,100.00
2022-10-16T02:39:02.807Z,100.00
2022-10-16T02:42:08.592Z,100.00
2022-10-16T02:45:14.607Z,100.00
2022-10-16T02:48:21.229Z,100.00
2022-10-16T02:51:26.565Z,100.00
2022-10-16T02:54:31.714Z,100.00
2022-10-16T02:57:38.164Z,100.00
2022-10-16T03:00:45.037Z,100.00
2022-10-16T03:03:51.625Z,100.00
2022-10-16T03:06:56.547Z,100.00
2022-10-16T03:10:01.698Z,100.00
2022-10-16T03:13:07.655Z,100.00
2022-10-16T03:16:12.722Z,100.00
2022-10-16T03:19:19.773Z,100.00
2022-10-16T03:22:24.826Z,100.00
2022-10-16T03:25:29.997Z,100.00
2022-10-16T03:28:34.907Z,100.00
2022-10-16T03:31:39.776Z,100.00
2022-10-16T03:34:46.450Z,100.00
2022-10-16T03:37:51.350Z,100.00
2022-10-16T03:40:57.870Z,100.00
2022-10-16T03:44:01.205Z,100.00
2022-10-16T03:47:03.862Z,100.00
2022-10-16T03:50:09.645Z,100.00
2022-10-16T03:53:16.152Z,100.00
2022-10-16T03:56:19.367Z,100.00
2022-10-16T03:59:21.974Z,100.00
2022-10-16T04:02:24.700Z,100.00
2022-10-16T04:05:28.914Z,100.00
2022-10-16T04:08:31.579Z,100.00
2022-10-16T04:11:34.545Z,100.00
2022-10-16T04:14:37.596Z,100.00
2022-10-16T04:17:40.325Z,100.00
2022-10-16T04:20:44.302Z,100.00
2022-10-16T04:23:46.966Z,100.00
2022-10-16T04:26:49.579Z,100.00
2022-10-16T04:29:52.236Z,100.00
2022-10-16T04:32:55.142Z,100.00
2022-10-16T04:36:03.357Z,100.00
2022-10-16T04:39:06.012Z,100.00
2022-10-16T04:42:08.642Z,100.00
2022-10-16T04:45:14.739Z,100.00
2022-10-16T04:48:19.981Z,100.00
2022-10-16T04:51:24.013Z,100.00
2022-10-16T04:54:26.823Z,100.00
2022-10-16T04:57:29.855Z,100.00
2022-10-16T05:00:32.477Z,100.00
2022-10-16T05:03:35.188Z,100.00
2022-10-16T05:06:40.393Z,100.00
2022-10-16T05:09:43.033Z,100.00
2022-10-16T05:12:45.760Z,100.00
2022-10-16T05:15:49.121Z,100.00
2022-10-16T05:18:56.185Z,100.00
2022-10-16T05:22:08.573Z,100.00
2022-10-16T05:25:11.249Z,100.00
2022-10-16T05:28:13.873Z,100.00
2022-10-16T05:31:16.534Z,100.00
2022-10-16T05:34:19.302Z,100.00
2022-10-16T05:37:23.644Z,100.00
2022-10-16T05:40:26.510Z,100.00
2022-10-16T05:43:29.805Z,100.00
2022-10-16T05:46:32.440Z,100.00
2022-10-16T05:49:37.862Z,100.00
2022-10-16T05:52:44.450Z,100.00
2022-10-16T05:55:53.968Z,100.00
2022-10-16T05:58:57.101Z,100.00
2022-10-16T06:01:59.872Z,100.00
2022-10-16T06:05:02.491Z,100.00
2022-10-16T06:08:06.649Z,100.00
2022-10-16T06:11:11.565Z,100.00
2022-10-16T06:14:14.268Z,100.00
2022-10-16T06:17:17.177Z,100.00
2022-10-16T06:20:19.797Z,100.00
2022-10-16T06:23:24.549Z,100.00
2022-10-16T06:26:28.436Z,100.00
2022-10-16T06:29:31.065Z,100.00
2022-10-16T06:32:33.702Z,100.00
2022-10-16T06:35:36.357Z,100.00
2022-10-16T06:38:41.080Z,100.00
2022-10-16T06:41:43.705Z,100.00
2022-10-16T06:44:46.377Z,100.00
2022-10-16T06:47:49.388Z,100.00
2022-10-16T06:50:59.500Z,100.00
2022-10-16T06:54:04.627Z,100.00
2022-10-16T06:57:07.376Z,100.00
2022-10-16T07:00:10.764Z,100.00
2022-10-16T07:03:13.410Z,100.00
2022-10-16T07:06:18.246Z,100.00
2022-10-16T07:09:22.384Z,100.00
2022-10-16T07:12:25.380Z,100.00
2022-10-16T07:15:28.340Z,100.00
2022-10-16T07:18:33.116Z,100.00
2022-10-16T07:21:37.406Z,100.00
2022-10-16T07:24:42.788Z,100.00
2022-10-16T07:27:45.647Z,100.00
2022-10-16T07:30:48.254Z,100.00
2022-10-16T07:33:51.153Z,100.00
2022-10-16T07:36:53.817Z,100.00
2022-10-16T07:39:57.788Z,100.00
2022-10-16T07:43:03.033Z,100.00
2022-10-16T07:46:06.632Z,100.00
2022-10-16T07:49:10.833Z,100.00
2022-10-16T07:52:13.454Z,100.00
2022-10-16T07:55:17.752Z,100.00
2022-10-16T07:58:20.399Z,100.00
2022-10-16T08:01:23.120Z,100.00
2022-10-16T08:04:25.785Z,100.00
2022-10-16T08:07:28.809Z,100.00
2022-10-16T08:10:32.974Z,100.00
2022-10-16T08:13:36.010Z,100.00
2022-10-16T08:16:38.656Z,100.00
2022-10-16T08:19:41.288Z,99.59
2022-10-16T08:22:43.871Z,99.31
2022-10-16T08:25:47.868Z,98.23
2022-10-16T08:28:51.798Z,96.08
2022-10-16T08:31:54.501Z,95.15
2022-10-16T08:34:57.132Z,95.46
2022-10-16T08:37:59.770Z,95.70
2022-10-16T08:41:22.001Z,95.47
2022-10-16T08:44:41.617Z,95.86
2022-10-16T08:47:50.780Z,96.19
2022-10-16T08:50:54.957Z,95.50
2022-10-16T08:53:59.677Z,94.87
2022-10-16T08:57:11.766Z,94.76
2022-10-16T09:00:16.575Z,95.19
2022-10-16T09:03:31.269Z,94.98
2022-10-16T09:06:45.361Z,95.36
2022-10-16T09:10:16.905Z,94.20
2022-10-16T09:13:28.258Z,93.53
2022-10-16T09:16:35.959Z,93.32
2022-10-16T09:19:43.944Z,93.50
2022-10-16T09:22:46.581Z,92.81
2022-10-16T09:25:52.027Z,89.94
2022-10-16T09:28:56.186Z,89.00
2022-10-16T09:32:14.151Z,88.73
2022-10-16T09:35:20.111Z,88.62
2022-10-16T09:38:25.929Z,89.30
2022-10-16T09:41:28.721Z,89.39
2022-10-16T09:44:33.715Z,89.08
2022-10-16T09:47:41.746Z,88.51
2022-10-16T09:50:44.492Z,88.48
2022-10-16T09:53:48.483Z,88.41
2022-10-16T09:56:52.951Z,88.01
2022-10-16T09:59:59.373Z,88.13
2022-10-16T10:03:02.156Z,85.38
2022-10-16T10:06:18.313Z,84.60
2022-10-16T10:09:23.567Z,83.76
2022-10-16T10:12:27.448Z,84.71
2022-10-16T10:15:36.581Z,85.33
2022-10-16T10:18:39.210Z,85.63
2022-10-16T10:21:41.984Z,85.70
2022-10-16T10:24:46.371Z,84.35
2022-10-16T10:28:12.975Z,83.48
2022-10-16T10:31:24.270Z,83.35
2022-10-16T10:34:42.041Z,81.13
2022-10-16T10:37:57.296Z,79.07
2022-10-16T10:41:19.130Z,79.14
2022-10-16T10:44:33.089Z,78.62
2022-10-16T10:47:45.978Z,79.33
2022-10-16T10:50:53.878Z,78.62
2022-10-16T10:54:06.776Z,74.50
2022-10-16T10:57:17.089Z,74.98
2022-10-16T11:00:25.226Z,72.21
2022-10-16T11:03:44.690Z,72.77
2022-10-16T11:06:51.453Z,71.24
2022-10-16T11:09:57.702Z,73.11
2022-10-16T11:13:12.778Z,72.59
2022-10-16T11:16:21.588Z,72.08
2022-10-16T11:19:37.501Z,73.07
2022-10-16T11:22:44.459Z,73.33
2022-10-16T11:25:49.309Z,71.92
2022-10-16T11:28:56.268Z,69.57
2022-10-16T11:32:02.398Z,68.81
2022-10-16T11:35:16.627Z,68.63
2022-10-16T11:38:35.217Z,67.73
2022-10-16T11:41:44.116Z,68.00
2022-10-16T11:44:57.262Z,69.39
2022-10-16T11:48:04.288Z,69.51
2022-10-16T11:51:13.427Z,69.24
2022-10-16T11:54:23.365Z,70.02
2022-10-16T11:57:30.212Z,67.83
2022-10-16T12:00:40.374Z,68.09
2022-10-16T12:03:50.753Z,69.60
2022-10-16T12:07:01.003Z,64.97
2022-10-16T12:10:12.578Z,65.79
2022-10-16T12:13:35.486Z,68.33
2022-10-16T12:16:40.033Z,63.54
2022-10-16T12:19:42.849Z,65.22
2022-10-16T12:22:55.019Z,67.82
2022-10-16T12:25:59.595Z,68.99
2022-10-16T12:29:16.338Z,69.80
2022-10-16T12:32:47.523Z,70.68
2022-10-16T12:35:50.691Z,69.44
2022-10-16T12:38:55.771Z,69.87
2022-10-16T12:42:07.085Z,67.64
2022-10-16T12:45:27.076Z,66.43
2022-10-16T12:48:37.100Z,64.59
2022-10-16T12:51:51.362Z,66.11
2022-10-16T12:55:00.085Z,64.59
2022-10-16T12:58:25.216Z,63.32
2022-10-16T13:01:38.950Z,65.19
2022-10-16T13:04:59.553Z,64.51
2022-10-16T13:08:18.825Z,63.88
2022-10-16T13:11:29.733Z,65.25
2022-10-16T13:14:52.640Z,64.25
2022-10-16T13:18:06.608Z,66.71
2022-10-16T13:21:27.206Z,67.71
2022-10-16T13:24:54.794Z,68.58
2022-10-16T13:28:07.237Z,68.84
2022-10-16T13:31:18.073Z,69.85
2022-10-16T13:34:24.491Z,72.04
2022-10-16T13:37:28.707Z,74.45
2022-10-16T13:40:31.687Z,73.51
2022-10-16T13:43:38.264Z,74.08
2022-10-16T13:46:42.667Z,74.33
2022-10-16T13:49:45.453Z,73.03
2022-10-16T13:52:48.174Z,73.49
2022-10-16T13:55:50.819Z,73.06
2022-10-16T13:59:02.549Z,69.90
2022-10-16T14:02:16.959Z,67.40
2022-10-16T14:05:19.756Z,68.17
2022-10-16T14:08:23.417Z,71.18
2022-10-16T14:11:27.029Z,73.30
2022-10-16T14:14:36.707Z,73.63
2022-10-16T14:17:47.990Z,74.28
2022-10-16T14:20:51.578Z,75.31
2022-10-16T14:23:54.862Z,76.50
2022-10-16T14:26:57.790Z,78.43
2022-10-16T14:30:16.088Z,80.37
2022-10-16T14:33:26.088Z,81.43
2022-10-16T14:36:30.138Z,78.14
2022-10-16T14:39:32.913Z,79.15
2022-10-16T14:42:37.152Z,79.98
2022-10-16T14:45:44.096Z,80.56
2022-10-16T14:48:49.753Z,81.06
2022-10-16T14:51:52.976Z,78.19
2022-10-16T14:54:57.372Z,78.04
2022-10-16T14:58:00.944Z,76.68
2022-10-16T15:01:07.784Z,76.60
2022-10-16T15:04:13.334Z,77.47
2022-10-16T15:07:16.143Z,77.81
2022-10-16T15:10:20.097Z,78.51
2022-10-16T15:13:22.774Z,77.11
2022-10-16T15:16:26.785Z,77.11
2022-10-16T15:19:29.608Z,77.40
2022-10-16T15:22:32.251Z,78.04
2022-10-16T15:25:40.541Z,78.81
2022-10-16T15:28:43.345Z,79.19
2022-10-16T15:31:48.582Z,79.22
2022-10-16T15:34:51.563Z,79.27
2022-10-16T15:37:54.287Z,79.81
2022-10-16T15:40:57.535Z,78.35
2022-10-16T15:44:06.338Z,78.74
2022-10-16T15:47:14.853Z,79.89
2022-10-16T15:50:21.315Z,80.52
2022-10-16T15:53:27.668Z,81.65
2022-10-16T15:56:35.322Z,82.67
2022-10-16T15:59:43.151Z,83.19
2022-10-16T16:02:53.159Z,83.71
2022-10-16T16:05:56.775Z,84.21
2022-10-16T16:12:06.026Z,85.73
2022-10-16T16:15:15.790Z,87.08
2022-10-16T16:18:24.518Z,88.04
2022-10-16T16:21:32.214Z,88.41
2022-10-16T16:24:35.603Z,88.85
2022-10-16T16:27:40.165Z,89.32
2022-10-16T16:30:44.832Z,89.81
2022-10-16T16:34:06.477Z,90.29
2022-10-16T16:37:45.421Z,90.75
2022-10-16T16:41:03.321Z,91.16
2022-10-16T16:44:26.251Z,91.81
2022-10-16T16:47:59.763Z,92.37
2022-10-16T16:55:24.125Z,93.98
2022-10-16T16:58:32.646Z,94.39
2022-10-16T17:01:40.619Z,94.60
2022-10-16T17:04:51.155Z,95.10
2022-10-16T17:07:59.038Z,95.24
2022-10-16T17:11:20.707Z,95.73
2022-10-16T17:14:31.231Z,95.96
2022-10-16T17:17:38.751Z,96.11
2022-10-16T17:20:44.909Z,95.91
2022-10-16T17:23:55.596Z,96.27
2022-10-16T17:27:07.177Z,96.54
2022-10-16T17:30:14.749Z,96.55
2022-10-16T17:33:37.120Z,97.11
2022-10-16T17:36:58.202Z,96.67
2022-10-16T17:40:15.232Z,96.54
2022-10-16T17:43:37.901Z,96.96
2022-10-16T17:46:42.068Z,97.08
2022-10-16T17:50:00.814Z,97.38
2022-10-16T17:53:11.812Z,97.52
2022-10-16T17:56:21.149Z,97.71
2022-10-16T17:59:35.484Z,98.18
2022-10-16T18:02:45.728Z,99.05
2022-10-16T18:05:57.717Z,98.75
2022-10-16T18:09:22.418Z,98.72
2022-10-16T18:12:30.605Z,98.84
2022-10-16T18:15:42.957Z,98.66
2022-10-16T18:18:54.203Z,99.03
2022-10-16T18:22:01.620Z,98.90
2022-10-16T18:25:10.052Z,99.69
2022-10-16T18:28:17.874Z,100.00
2022-10-16T18:31:26.878Z,100.00
2022-10-16T18:34:35.007Z,100.00
2022-10-16T18:37:42.982Z,100.00
2022-10-16T18:40:52.940Z,99.48
2022-10-16T18:44:00.540Z,99.69
2022-10-16T18:47:09.382Z,99.79
2022-10-16T18:50:16.449Z,99.87
2022-10-16T18:53:26.406Z,99.78
2022-10-16T18:56:35.555Z,100.00
2022-10-16T18:59:45.795Z,100.00
2022-10-16T19:02:58.616Z,100.00
2022-10-16T19:06:07.344Z,99.98
2022-10-16T19:13:07.528Z,99.72
2022-10-16T19:20:06.292Z,98.95
2022-10-16T19:23:26.019Z,99.25
2022-10-16T19:26:56.647Z,99.07
2022-10-16T19:30:04.591Z,98.88
2022-10-16T19:33:14.503Z,99.16
2022-10-16T19:36:31.996Z,98.92
2022-10-16T19:43:05.142Z,99.04
2022-10-16T19:46:11.037Z,99.10
2022-10-16T19:49:21.259Z,98.66
2022-10-16T19:52:31.347Z,98.39
2022-10-16T19:55:35.432Z,97.99
2022-10-16T19:58:39.984Z,97.99
2022-10-16T20:01:45.639Z,97.60
2022-10-16T20:04:52.256Z,97.50
2022-10-16T20:07:59.956Z,97.68
2022-10-16T20:11:14.906Z,97.40
2022-10-16T20:14:23.665Z,97.39
2022-10-16T20:21:03.187Z,97.21
2022-10-16T20:24:10.525Z,97.05
2022-10-16T20:27:17.195Z,96.91
2022-10-16T20:30:21.844Z,96.52
2022-10-16T20:33:26.327Z,96.75
2022-10-16T20:36:36.162Z,96.47
2022-10-16T20:39:45.806Z,96.36
2022-10-16T20:42:53.442Z,96.70
2022-10-16T20:46:04.817Z,96.31
2022-10-16T20:49:28.259Z,96.88
2022-10-16T20:52:39.794Z,97.48
2022-10-16T20:55:47.845Z,97.61
2022-10-16T20:58:59.461Z,97.99
2022-10-16T21:02:07.817Z,98.58
2022-10-16T21:05:15.532Z,98.33
2022-10-16T21:12:00.659Z,97.46
2022-10-16T21:15:16.784Z,98.00
2022-10-16T21:18:25.970Z,98.28
2022-10-16T21:21:38.397Z,98.71
2022-10-16T21:31:58.629Z,98.54
2022-10-16T21:35:15.520Z,97.98
2022-10-16T21:38:19.764Z,98.29
2022-10-16T21:41:32.081Z,97.65
2022-10-16T21:44:39.839Z,97.53
2022-10-16T21:47:48.379Z,97.91
2022-10-16T21:50:54.655Z,98.52
2022-10-16T21:54:04.380Z,98.79
2022-10-16T21:57:11.389Z,98.97
2022-10-16T22:00:16.522Z,98.69
2022-10-16T22:03:19.670Z,98.91
2022-10-16T22:06:25.636Z,99.56
2022-10-16T22:09:28.695Z,99.98
2022-10-16T22:12:32.245Z,99.93
2022-10-16T22:15:36.523Z,99.56
2022-10-16T22:18:40.407Z,99.50
2022-10-16T22:21:45.968Z,98.99
2022-10-16T22:24:51.143Z,99.13
2022-10-16T22:27:54.087Z,99.18
2022-10-16T22:31:02.332Z,99.75
2022-10-16T22:34:06.032Z,100.00
2022-10-16T22:37:12.271Z,100.00
2022-10-16T22:40:15.061Z,100.00
2022-10-16T22:43:17.931Z,100.00
2022-10-16T22:46:24.077Z,100.00
2022-10-16T22:49:26.999Z,100.00
2022-10-16T22:52:32.146Z,99.31
2022-10-16T22:55:35.308Z,98.93
2022-10-16T22:58:38.653Z,99.43
2022-10-16T23:01:43.499Z,99.08
2022-10-16T23:04:46.239Z,98.79
2022-10-16T23:07:49.861Z,98.61
2022-10-16T23:10:52.978Z,98.55
2022-10-16T23:13:56.393Z,99.03
2022-10-16T23:17:00.572Z,99.29
2022-10-16T23:20:03.294Z,99.05
2022-10-16T23:23:06.079Z,99.64
2022-10-16T23:26:11.159Z,99.16
2022-10-16T23:29:13.888Z,98.89
2022-10-16T23:32:18.288Z,99.49
2022-10-16T23:35:21.527Z,99.36
2022-10-16T23:38:24.615Z,99.49
2022-10-16T23:41:27.515Z,99.56
2022-10-16T23:44:30.360Z,99.08
2022-10-16T23:47:34.884Z,98.90
2022-10-16T23:50:37.817Z,98.99
2022-10-16T23:53:41.389Z,98.94
2022-10-16T23:56:44.387Z,99.21
2022-10-16T23:59:47.199Z,99.82
